createdAt,value
2019-03-06T00:00:48.519Z,46.10
2019-03-06T00:03:16.965Z,46.10
2019-03-06T00:05:46.421Z,46.10
2019-03-06T00:08:16.450Z,46.10
2019-03-06T00:10:45.011Z,46.10
2019-03-06T00:13:13.361Z,46.20
2019-03-06T00:15:41.773Z,46.10
2019-03-06T00:18:10.163Z,46.10
2019-03-06T00:20:38.574Z,46.70
2019-03-06T00:23:06.963Z,46.20
2019-03-06T00:25:35.369Z,46.20
2019-03-06T00:28:03.766Z,46.20
2019-03-06T00:30:32.218Z,46.10
2019-03-06T00:33:00.589Z,46.20
2019-03-06T00:35:30.718Z,46.20
2019-03-06T00:38:01.045Z,46.20
2019-03-06T00:40:33.514Z,46.20
2019-03-06T00:43:01.942Z,46.30
2019-03-06T00:45:30.395Z,46.20
2019-03-06T00:47:58.813Z,46.20
2019-03-06T00:50:27.259Z,46.20
2019-03-06T00:52:55.655Z,46.20
2019-03-06T00:55:24.058Z,45.60
2019-03-06T00:57:52.453Z,46.20
2019-03-06T01:00:23.820Z,46.30
2019-03-06T01:02:52.300Z,46.30
2019-03-06T01:05:20.938Z,46.20
2019-03-06T01:07:49.361Z,46.30
2019-03-06T01:10:17.797Z,46.30
2019-03-06T01:12:46.317Z,46.20
2019-03-06T01:15:15.899Z,46.40
2019-03-06T01:17:50.068Z,46.20
2019-03-06T01:20:18.453Z,46.40
2019-03-06T01:22:48.489Z,46.40
2019-03-06T01:25:19.054Z,46.40
2019-03-06T01:27:47.474Z,46.40
2019-03-06T01:30:19.320Z,46.40
2019-03-06T01:32:49.367Z,46.50
2019-03-06T01:35:28.759Z,46.40
2019-03-06T01:37:58.863Z,46.40
2019-03-06T01:40:45.385Z,46.30
2019-03-06T01:43:15.439Z,46.40
2019-03-06T01:45:43.847Z,46.40
2019-03-06T01:48:12.657Z,46.30
2019-03-06T01:50:41.057Z,46.40
2019-03-06T01:53:09.459Z,46.40
2019-03-06T01:55:40.987Z,46.30
2019-03-06T01:58:08.705Z,46.40
2019-03-06T02:00:37.573Z,46.30
2019-03-06T02:03:07.615Z,46.30
2019-03-06T02:05:35.989Z,46.40
2019-03-06T02:08:04.405Z,46.30
2019-03-06T02:10:32.797Z,46.40
2019-03-06T02:13:01.449Z,46.10
2019-03-06T02:15:29.866Z,46.70
2019-03-06T02:17:58.292Z,46.20
2019-03-06T02:20:26.693Z,46.30
2019-03-06T02:22:55.178Z,46.30
2019-03-06T02:25:23.537Z,46.20
2019-03-06T02:27:52.104Z,46.30
2019-03-06T02:30:24.834Z,46.30
2019-03-06T02:32:53.321Z,46.30
2019-03-06T02:35:21.721Z,46.40
2019-03-06T02:37:50.187Z,46.30
2019-03-06T02:40:19.894Z,46.00
2019-03-06T02:42:48.311Z,46.00
2019-03-06T02:45:22.378Z,46.00
2019-03-06T02:47:50.803Z,46.00
2019-03-06T02:50:19.482Z,46.10
2019-03-06T02:52:47.908Z,46.00
2019-03-06T02:55:17.486Z,46.00
2019-03-06T02:57:59.438Z,46.00
2019-03-06T03:00:35.538Z,46.00
2019-03-06T03:03:15.415Z,46.00
2019-03-06T03:05:48.243Z,46.00
2019-03-06T03:08:16.657Z,46.10
2019-03-06T03:10:45.330Z,45.80
2019-03-06T03:13:13.811Z,45.90
2019-03-06T03:15:42.202Z,45.80
2019-03-06T03:18:10.658Z,45.70
2019-03-06T03:20:39.036Z,45.70
2019-03-06T03:23:07.455Z,45.70
2019-03-06T03:25:38.543Z,45.70
2019-03-06T03:28:07.034Z,46.30
2019-03-06T03:30:35.426Z,45.60
2019-03-06T03:33:03.906Z,45.60
2019-03-06T03:35:32.358Z,45.60
2019-03-06T03:38:00.769Z,45.60
2019-03-06T03:40:29.170Z,45.60
2019-03-06T03:42:57.578Z,45.60
2019-03-06T03:45:25.980Z,45.60
2019-03-06T03:47:54.374Z,45.60
2019-03-06T03:50:23.136Z,45.60
2019-03-06T03:52:51.518Z,45.50
2019-03-06T03:55:19.936Z,45.50
2019-03-06T03:57:48.419Z,45.50
2019-03-06T04:00:23.277Z,45.50
2019-03-06T04:02:51.975Z,45.50
2019-03-06T04:05:20.388Z,45.40
2019-03-06T04:07:48.792Z,45.50
2019-03-06T04:10:17.208Z,45.50
2019-03-06T04:12:45.601Z,45.50
2019-03-06T04:15:18.134Z,45.50
2019-03-06T04:17:46.526Z,45.50
2019-03-06T04:20:16.091Z,45.50
2019-03-06T04:22:47.743Z,45.50
2019-03-06T04:25:16.160Z,45.50
2019-03-06T04:27:46.169Z,45.50
2019-03-06T04:30:19.524Z,45.80
2019-03-06T04:32:47.884Z,45.50
2019-03-06T04:35:16.291Z,45.50
2019-03-06T04:37:44.691Z,45.50
2019-03-06T04:40:14.148Z,45.50
2019-03-06T04:42:42.540Z,45.50
2019-03-06T04:45:17.324Z,45.40
2019-03-06T04:48:00.782Z,45.50
2019-03-06T04:50:29.508Z,45.50
2019-03-06T04:52:57.902Z,45.60
2019-03-06T04:55:26.334Z,45.70
2019-03-06T04:57:54.749Z,45.80
2019-03-06T05:00:24.782Z,45.80
2019-03-06T05:02:53.485Z,45.70
2019-03-06T05:05:21.920Z,45.70
2019-03-06T05:07:50.308Z,45.70
2019-03-06T05:10:18.702Z,45.70
2019-03-06T05:12:47.093Z,45.60
2019-03-06T05:15:19.057Z,45.70
2019-03-06T05:18:05.625Z,45.70
2019-03-06T05:20:34.046Z,45.70
2019-03-06T05:23:02.442Z,45.70
2019-03-06T05:25:31.050Z,45.60
2019-03-06T05:27:59.450Z,45.70
2019-03-06T05:30:29.771Z,45.60
2019-03-06T05:33:04.213Z,45.70
2019-03-06T05:35:47.697Z,45.70
2019-03-06T05:38:31.463Z,45.70
2019-03-06T05:40:59.853Z,45.70
2019-03-06T05:43:28.238Z,45.70
2019-03-06T05:45:56.650Z,45.80
2019-03-06T05:48:25.041Z,45.70
2019-03-06T05:50:53.455Z,45.70
2019-03-06T05:53:21.840Z,45.70
2019-03-06T05:55:50.257Z,45.70
2019-03-06T05:58:18.634Z,45.70
2019-03-06T06:00:47.051Z,45.60
2019-03-06T06:03:15.426Z,45.70
2019-03-06T06:05:43.844Z,45.60
2019-03-06T06:08:12.241Z,45.60
2019-03-06T06:10:40.622Z,45.70
2019-03-06T06:13:09.047Z,45.70
2019-03-06T06:15:37.423Z,45.60
2019-03-06T06:18:05.839Z,45.60
2019-03-06T06:20:34.217Z,45.60
2019-03-06T06:23:07.383Z,45.60
2019-03-06T06:25:36.538Z,45.50
2019-03-06T06:28:05.046Z,45.50
2019-03-06T06:30:33.451Z,45.50
2019-03-06T06:33:01.868Z,46.20
2019-03-06T06:35:30.238Z,45.80
2019-03-06T06:37:58.693Z,45.50
2019-03-06T06:40:27.037Z,45.50
2019-03-06T06:42:55.450Z,45.50
2019-03-06T06:45:23.839Z,45.40
2019-03-06T06:48:15.157Z,45.40
2019-03-06T06:51:01.630Z,45.30
2019-03-06T06:53:34.085Z,45.30
2019-03-06T06:56:14.817Z,45.40
2019-03-06T06:58:49.428Z,45.30
2019-03-06T07:01:31.810Z,45.20
2019-03-06T07:04:29.223Z,45.20
2019-03-06T07:07:02.340Z,45.20
2019-03-06T07:09:50.686Z,45.10
2019-03-06T07:12:36.073Z,45.10
2019-03-06T07:15:25.318Z,45.00
2019-03-06T07:18:01.369Z,45.20
2019-03-06T07:20:31.365Z,45.10
2019-03-06T07:23:07.539Z,44.90
2019-03-06T07:25:43.368Z,44.80
2019-03-06T07:28:22.509Z,44.80
2019-03-06T07:31:07.592Z,44.80
2019-03-06T07:33:40.068Z,44.80
2019-03-06T07:36:12.730Z,44.80
2019-03-06T07:38:41.156Z,44.60
2019-03-06T07:41:11.172Z,44.60
2019-03-06T07:43:53.548Z,44.70
2019-03-06T07:46:26.261Z,44.80
2019-03-06T07:49:02.170Z,44.60
2019-03-06T07:51:32.198Z,44.70
2019-03-06T07:54:09.937Z,44.60
2019-03-06T07:56:47.480Z,44.60
2019-03-06T07:59:18.996Z,44.60
2019-03-06T08:01:51.877Z,44.40
2019-03-06T08:04:20.286Z,44.60
2019-03-06T08:06:50.379Z,44.50
2019-03-06T08:09:20.150Z,45.10
2019-03-06T08:12:02.342Z,44.40
2019-03-06T08:14:32.478Z,42.00
2019-03-06T08:17:02.515Z,43.10
2019-03-06T08:19:41.479Z,44.30
2019-03-06T08:22:17.525Z,44.40
2019-03-06T08:25:02.601Z,44.40
2019-03-06T08:27:30.985Z,44.40
2019-03-06T08:29:59.505Z,44.40
2019-03-06T08:32:29.658Z,44.40
2019-03-06T08:34:58.079Z,44.40
2019-03-06T08:37:26.486Z,44.00
2019-03-06T08:39:54.919Z,42.40
2019-03-06T08:42:23.317Z,41.50
2019-03-06T08:44:51.714Z,43.40
2019-03-06T08:47:21.741Z,43.30
2019-03-06T08:49:55.251Z,43.60
2019-03-06T08:52:28.075Z,43.50
2019-03-06T08:55:16.460Z,41.00
2019-03-06T08:57:46.495Z,41.30
2019-03-06T09:00:35.509Z,42.90
2019-03-06T09:03:18.029Z,43.20
2019-03-06T09:05:54.240Z,42.10
2019-03-06T09:08:27.449Z,41.10
2019-03-06T09:11:02.768Z,40.90
2019-03-06T09:13:37.990Z,40.80
2019-03-06T09:16:20.011Z,40.90
2019-03-06T09:18:52.559Z,41.30
2019-03-06T09:21:25.558Z,42.90
2019-03-06T09:24:10.344Z,41.90
2019-03-06T09:26:40.371Z,43.60
2019-03-06T09:29:10.429Z,42.40
2019-03-06T09:31:43.208Z,43.50
2019-03-06T09:34:22.185Z,41.40
2019-03-06T09:36:52.217Z,43.10
2019-03-06T09:39:24.711Z,43.70
2019-03-06T09:41:57.173Z,42.30
2019-03-06T09:44:27.217Z,41.90
2019-03-06T09:47:12.338Z,42.20
2019-03-06T09:49:45.071Z,41.10
2019-03-06T09:52:31.565Z,41.60
2019-03-06T09:55:04.598Z,41.30
2019-03-06T09:57:50.929Z,41.10
2019-03-06T10:00:20.970Z,42.20
2019-03-06T10:02:50.994Z,42.30
2019-03-06T10:05:21.358Z,41.70
2019-03-06T10:07:51.414Z,43.00
2019-03-06T10:10:46.160Z,42.20
2019-03-06T10:13:26.144Z,42.00
2019-03-06T10:16:02.652Z,41.50
2019-03-06T10:18:44.596Z,42.20
2019-03-06T10:21:14.208Z,43.40
2019-03-06T10:23:42.733Z,42.60
2019-03-06T10:26:11.212Z,42.50
2019-03-06T10:28:39.602Z,42.80
2019-03-06T10:31:08.327Z,42.60
2019-03-06T10:33:36.753Z,42.10
2019-03-06T10:36:05.373Z,42.00
2019-03-06T10:38:35.117Z,42.70
2019-03-06T10:41:03.589Z,42.80
2019-03-06T10:43:32.100Z,43.50
2019-03-06T10:46:00.651Z,43.50
2019-03-06T10:48:29.348Z,42.10
2019-03-06T10:50:57.963Z,42.00
2019-03-06T10:53:26.427Z,42.40
2019-03-06T10:55:54.836Z,42.10
2019-03-06T10:58:23.302Z,42.20
2019-03-06T11:00:55.306Z,41.60
2019-03-06T11:03:25.518Z,42.20
2019-03-06T11:05:53.929Z,42.70
2019-03-06T11:08:22.331Z,43.30
2019-03-06T11:10:50.757Z,43.00
2019-03-06T11:13:19.131Z,42.40
2019-03-06T11:15:55.423Z,42.80
2019-03-06T11:18:17.758Z,41.80
2019-03-06T11:20:46.630Z,43.70
2019-03-06T11:23:15.055Z,43.80
2019-03-06T11:25:43.436Z,42.60
2019-03-06T11:28:12.894Z,43.80
2019-03-06T11:30:50.318Z,43.40
2019-03-06T11:33:19.700Z,43.30
2019-03-06T11:35:48.401Z,42.10
2019-03-06T11:38:16.821Z,43.20
2019-03-06T11:40:45.216Z,42.60
2019-03-06T11:43:13.629Z,43.30
2019-03-06T11:45:42.112Z,42.80
2019-03-06T11:48:10.545Z,41.70
2019-03-06T11:50:41.131Z,43.10
2019-03-06T11:53:09.353Z,41.60
2019-03-06T11:55:38.208Z,42.50
2019-03-06T11:58:08.731Z,42.20
2019-03-06T12:00:39.601Z,42.50
2019-03-06T12:03:09.182Z,41.80
2019-03-06T12:05:37.935Z,43.50
2019-03-06T12:08:09.454Z,42.40
2019-03-06T12:10:37.955Z,42.80
2019-03-06T12:13:08.942Z,42.10
2019-03-06T12:15:37.324Z,43.20
2019-03-06T12:18:05.907Z,43.70
2019-03-06T12:20:34.286Z,43.20
2019-03-06T12:23:03.039Z,43.80
2019-03-06T12:25:31.410Z,43.90
2019-03-06T12:27:59.986Z,43.50
2019-03-06T12:30:28.436Z,44.00
2019-03-06T12:32:56.951Z,43.90
2019-03-06T12:35:25.346Z,43.90
2019-03-06T12:37:53.987Z,42.20
2019-03-06T12:40:24.841Z,42.30
2019-03-06T12:42:53.457Z,42.80
2019-03-06T12:45:22.025Z,43.10
2019-03-06T12:47:56.661Z,43.90
2019-03-06T12:50:30.985Z,44.20
2019-03-06T12:52:59.466Z,43.20
2019-03-06T12:55:27.844Z,44.20
2019-03-06T12:57:59.395Z,44.20
2019-03-06T13:00:26.856Z,43.80
2019-03-06T13:02:55.567Z,43.90
2019-03-06T13:05:24.008Z,44.00
2019-03-06T13:07:52.361Z,44.30
2019-03-06T13:10:20.837Z,44.40
2019-03-06T13:12:49.975Z,44.70
2019-03-06T13:15:21.596Z,42.10
2019-03-06T13:17:50.211Z,42.70
2019-03-06T13:20:18.626Z,42.00
2019-03-06T13:22:47.182Z,43.70
2019-03-06T13:25:18.114Z,44.10
2019-03-06T13:27:54.380Z,44.20
2019-03-06T13:30:17.714Z,43.60
2019-03-06T13:32:53.759Z,43.90
2019-03-06T13:35:22.270Z,43.90
2019-03-06T13:37:50.621Z,42.40
2019-03-06T13:40:19.098Z,43.80
2019-03-06T13:42:47.586Z,43.80
2019-03-06T13:45:16.361Z,43.20
2019-03-06T13:47:46.394Z,44.10
2019-03-06T13:50:14.972Z,44.10
2019-03-06T13:52:43.444Z,44.30
2019-03-06T13:55:14.157Z,44.20
2019-03-06T13:57:44.315Z,44.20
2019-03-06T14:00:20.970Z,44.10
2019-03-06T14:02:50.315Z,43.80
2019-03-06T14:05:19.983Z,44.20
2019-03-06T14:07:55.986Z,44.30
2019-03-06T14:10:23.318Z,42.80
2019-03-06T14:12:51.900Z,43.80
2019-03-06T14:15:20.657Z,42.60
2019-03-06T14:17:49.042Z,42.70
2019-03-06T14:20:23.391Z,43.80
2019-03-06T14:22:51.808Z,43.90
2019-03-06T14:25:21.314Z,44.10
2019-03-06T14:27:49.774Z,44.10
2019-03-06T14:30:23.694Z,44.10
2019-03-06T14:32:52.429Z,43.10
2019-03-06T14:35:20.842Z,43.80
2019-03-06T14:37:49.233Z,44.20
2019-03-06T14:40:29.278Z,44.10
2019-03-06T14:42:57.964Z,44.30
2019-03-06T14:45:26.553Z,44.40
2019-03-06T14:47:55.032Z,44.50
2019-03-06T14:50:23.512Z,44.50
2019-03-06T14:52:53.582Z,44.50
2019-03-06T14:55:22.066Z,44.60
2019-03-06T14:57:50.446Z,44.60
2019-03-06T15:00:20.274Z,39.60
2019-03-06T15:02:51.073Z,39.00
2019-03-06T15:05:20.132Z,38.60
2019-03-06T15:07:48.465Z,38.80
2019-03-06T15:10:17.933Z,39.40
2019-03-06T15:12:46.478Z,39.70
2019-03-06T15:15:16.289Z,39.90
2019-03-06T15:17:44.678Z,39.50
2019-03-06T15:20:18.052Z,40.00
2019-03-06T15:22:47.282Z,40.50
2019-03-06T15:25:17.837Z,40.50
2019-03-06T15:27:46.242Z,40.50
2019-03-06T15:30:15.978Z,40.50
2019-03-06T15:32:44.447Z,40.50
2019-03-06T15:35:13.103Z,40.90
2019-03-06T15:37:47.915Z,40.90
2019-03-06T15:40:26.349Z,41.30
2019-03-06T15:42:54.801Z,41.50
2019-03-06T15:45:25.170Z,41.60
2019-03-06T15:47:54.082Z,42.30
2019-03-06T15:50:22.500Z,41.70
2019-03-06T15:52:50.910Z,41.60
2019-03-06T15:55:27.527Z,40.90
2019-03-06T15:57:55.910Z,41.10
2019-03-06T16:00:45.805Z,40.90
2019-03-06T16:03:13.960Z,41.00
2019-03-06T16:05:42.629Z,40.50
2019-03-06T16:08:12.408Z,40.60
2019-03-06T16:10:43.590Z,41.10
2019-03-06T16:13:12.096Z,41.00
2019-03-06T16:15:40.545Z,40.00
2019-03-06T16:18:09.977Z,40.20
2019-03-06T16:20:38.494Z,40.10
2019-03-06T16:23:07.150Z,40.30
2019-03-06T16:25:37.938Z,40.70
2019-03-06T16:28:05.564Z,40.60
2019-03-06T16:30:34.088Z,41.30
2019-03-06T16:33:02.579Z,41.60
2019-03-06T16:35:30.977Z,41.70
2019-03-06T16:37:59.377Z,41.80
2019-03-06T16:40:30.470Z,41.80
2019-03-06T16:43:08.505Z,41.90
2019-03-06T16:45:36.912Z,42.10
2019-03-06T16:48:05.686Z,41.60
2019-03-06T16:50:34.105Z,41.60
2019-03-06T16:53:02.686Z,42.10
2019-03-06T16:55:31.188Z,42.40
2019-03-06T16:57:59.722Z,42.30
2019-03-06T17:00:37.145Z,42.40
2019-03-06T17:03:09.102Z,42.50
2019-03-06T17:05:37.886Z,42.50
2019-03-06T17:08:08.756Z,43.20
2019-03-06T17:10:38.050Z,42.60
2019-03-06T17:13:06.704Z,42.60
2019-03-06T17:15:35.121Z,43.10
2019-03-06T17:18:03.521Z,43.10
2019-03-06T17:20:33.586Z,42.50
2019-03-06T17:23:01.964Z,43.20
2019-03-06T17:25:31.254Z,43.20
2019-03-06T17:27:59.642Z,43.50
2019-03-06T17:30:32.266Z,43.90
2019-03-06T17:33:07.990Z,44.90
2019-03-06T17:35:36.490Z,45.70
2019-03-06T17:38:06.925Z,44.30
2019-03-06T17:40:36.122Z,44.50
2019-03-06T17:43:04.790Z,43.00
2019-03-06T17:45:33.294Z,43.20
2019-03-06T17:48:01.993Z,43.60
2019-03-06T17:50:30.532Z,43.10
2019-03-06T17:52:58.929Z,42.90
2019-03-06T17:55:27.361Z,42.90
2019-03-06T17:57:59.062Z,43.00
2019-03-06T18:00:29.645Z,43.00
2019-03-06T18:02:59.000Z,43.00
2019-03-06T18:05:27.616Z,43.00
2019-03-06T18:07:56.162Z,43.10
2019-03-06T18:10:24.647Z,43.10
2019-03-06T18:12:53.594Z,43.00
2019-03-06T18:15:22.033Z,43.20
2019-03-06T18:17:50.455Z,43.10
2019-03-06T18:20:19.339Z,43.10
2019-03-06T18:22:47.755Z,43.10
2019-03-06T18:25:21.484Z,43.10
2019-03-06T18:27:49.880Z,43.10
2019-03-06T18:30:19.324Z,43.10
2019-03-06T18:33:05.958Z,43.20
2019-03-06T18:35:34.395Z,43.20
2019-03-06T18:38:02.845Z,43.20
2019-03-06T18:40:31.250Z,43.20
2019-03-06T18:42:59.638Z,43.20
2019-03-06T18:45:28.091Z,43.30
2019-03-06T18:47:56.512Z,43.30
2019-03-06T18:50:24.890Z,43.30
2019-03-06T18:52:53.381Z,43.40
2019-03-06T18:55:21.914Z,43.40
2019-03-06T18:57:50.322Z,43.40
2019-03-06T19:00:21.510Z,43.40
2019-03-06T19:02:49.944Z,43.50
2019-03-06T19:05:19.262Z,43.50
2019-03-06T19:07:48.306Z,43.50
2019-03-06T19:10:18.147Z,43.50
2019-03-06T19:12:46.821Z,43.50
2019-03-06T19:15:17.886Z,43.60
2019-03-06T19:17:46.394Z,43.60
2019-03-06T19:20:16.598Z,43.60
2019-03-06T19:22:45.184Z,43.60
2019-03-06T19:25:13.583Z,43.60
2019-03-06T19:27:41.984Z,43.60
2019-03-06T19:30:21.636Z,43.60
2019-03-06T19:32:50.058Z,43.60
2019-03-06T19:35:19.979Z,43.50
2019-03-06T19:37:48.407Z,43.50
2019-03-06T19:40:17.949Z,43.50
2019-03-06T19:42:46.691Z,43.60
2019-03-06T19:45:20.207Z,43.60
2019-03-06T19:47:50.511Z,43.60
2019-03-06T19:50:21.081Z,43.60
2019-03-06T19:52:49.576Z,43.60
2019-03-06T19:55:18.988Z,43.70
2019-03-06T19:57:52.711Z,43.60
2019-03-06T20:00:22.245Z,43.60
2019-03-06T20:02:50.822Z,43.60
2019-03-06T20:05:19.685Z,43.60
2019-03-06T20:07:48.121Z,43.60
2019-03-06T20:10:16.874Z,43.70
2019-03-06T20:12:45.281Z,43.70
2019-03-06T20:15:17.961Z,43.70
2019-03-06T20:17:46.535Z,43.80
2019-03-06T20:20:17.048Z,43.80
2019-03-06T20:22:47.287Z,43.80
2019-03-06T20:25:17.833Z,43.80
2019-03-06T20:27:46.257Z,43.80
2019-03-06T20:30:17.182Z,43.70
2019-03-06T20:32:47.253Z,43.80
2019-03-06T20:35:18.965Z,43.70
2019-03-06T20:37:46.775Z,43.80
2019-03-06T20:40:15.478Z,43.80
2019-03-06T20:42:43.931Z,43.80
2019-03-06T20:45:13.267Z,43.80
2019-03-06T20:47:41.696Z,43.90
2019-03-06T20:50:14.767Z,43.80
2019-03-06T20:52:43.137Z,43.80
2019-03-06T20:55:12.647Z,43.90
2019-03-06T20:57:41.211Z,43.90
2019-03-06T21:00:24.705Z,43.90
2019-03-06T21:02:53.119Z,44.00
2019-03-06T21:05:21.505Z,44.00
2019-03-06T21:07:49.940Z,43.90
2019-03-06T21:10:19.110Z,44.00
2019-03-06T21:12:50.354Z,44.00
2019-03-06T21:15:23.749Z,43.90
2019-03-06T21:17:52.154Z,43.90
2019-03-06T21:20:23.860Z,43.90
2019-03-06T21:22:52.271Z,44.10
2019-03-06T21:25:21.510Z,44.00
2019-03-06T21:27:50.111Z,43.90
2019-03-06T21:30:29.311Z,43.90
2019-03-06T21:32:57.823Z,43.90
2019-03-06T21:35:26.205Z,43.90
2019-03-06T21:37:54.621Z,44.00
2019-03-06T21:40:23.023Z,44.00
2019-03-06T21:42:51.618Z,44.00
2019-03-06T21:45:20.044Z,44.00
2019-03-06T21:47:48.430Z,44.00
2019-03-06T21:50:17.686Z,44.00
2019-03-06T21:52:46.129Z,44.10
2019-03-06T21:55:15.298Z,44.10
2019-03-06T21:57:44.206Z,44.10
2019-03-06T22:00:15.886Z,44.00
2019-03-06T22:02:45.907Z,44.00
2019-03-06T22:05:14.354Z,44.10
2019-03-06T22:07:42.832Z,44.10
2019-03-06T22:10:12.491Z,44.00
2019-03-06T22:12:41.166Z,44.10
2019-03-06T22:15:17.330Z,44.10
2019-03-06T22:17:45.749Z,44.10
2019-03-06T22:20:14.775Z,44.10
2019-03-06T22:22:43.162Z,44.20
2019-03-06T22:25:18.795Z,44.10
2019-03-06T22:27:47.180Z,44.40
2019-03-06T22:30:23.146Z,44.20
2019-03-06T22:32:51.719Z,44.40
2019-03-06T22:35:20.300Z,44.30
2019-03-06T22:37:48.757Z,44.30
2019-03-06T22:40:18.513Z,44.30
2019-03-06T22:42:46.985Z,44.30
2019-03-06T22:45:18.687Z,44.40
2019-03-06T22:47:47.225Z,44.30
2019-03-06T22:50:16.859Z,44.20
2019-03-06T22:52:45.313Z,44.20
2019-03-06T22:55:20.344Z,44.10
2019-03-06T22:57:48.829Z,44.10
2019-03-06T23:00:34.306Z,44.20
2019-03-06T23:03:02.864Z,44.20
2019-03-06T23:05:34.485Z,44.20
2019-03-06T23:08:02.873Z,45.00
2019-03-06T23:10:31.287Z,44.40
2019-03-06T23:12:59.679Z,44.40
2019-03-06T23:15:29.173Z,44.50
2019-03-06T23:17:57.896Z,44.40
2019-03-06T23:20:26.340Z,44.50
2019-03-06T23:22:55.148Z,44.50
2019-03-06T23:25:23.525Z,44.60
2019-03-06T23:27:51.907Z,44.50
2019-03-06T23:30:20.319Z,44.40
2019-03-06T23:32:49.010Z,44.40
2019-03-06T23:35:17.433Z,44.40
2019-03-06T23:37:45.810Z,44.50
2019-03-06T23:40:14.215Z,44.50
2019-03-06T23:42:42.606Z,44.50
2019-03-06T23:45:12.157Z,44.50
2019-03-06T23:47:40.849Z,44.60
2019-03-06T23:50:10.643Z,44.80
2019-03-06T23:52:56.656Z,44.70
2019-03-06T23:55:25.923Z,44.70
2019-03-06T23:57:54.611Z,44.70
